TimeMST,TemperatureF,Dew PointF,Humidity,Sea Level PressureIn,VisibilityMPH,Wind Direction,Wind SpeedMPH,Gust SpeedMPH,PrecipitationIn,Events,Conditions,WindDirDegrees,DateUTC
12:53 AM,35.1,27.0,72,30.46,10.0,NW,8.1,-,N/A,,Scattered Clouds,310,2013-02-02 07:53:00
1:53 AM,33.1,26.1,75,30.47,10.0,NNW,4.6,-,N/A,,Clear,330,2013-02-02 08:53:00
2:53 AM,30.9,26.1,82,30.50,10.0,Calm,Calm,-,N/A,,Clear,0,2013-02-02 09:53:00
3:53 AM,28.0,24.1,85,30.52,10.0,Calm,Calm,-,N/A,,Clear,0,2013-02-02 10:53:00
4:53 AM,28.0,24.1,85,30.52,10.0,Calm,Calm,-,N/A,,Partly Cloudy,0,2013-02-02 11:53:00
5:53 AM,26.1,23.0,88,30.54,10.0,Calm,Calm,-,N/A,,Partly Cloudy,0,2013-02-02 12:53:00
6:53 AM,24.1,21.9,91,30.54,10.0,Calm,Calm,-,N/A,,Clear,0,2013-02-02 13:53:00
7:53 AM,25.0,21.9,88,30.55,10.0,Calm,Calm,-,N/A,,Clear,0,2013-02-02 14:53:00
8:53 AM,23.0,21.0,92,30.57,10.0,Calm,Calm,-,N/A,,Clear,0,2013-02-02 15:53:00
9:53 AM,25.0,24.1,96,30.57,10.0,Calm,Calm,-,N/A,,Clear,0,2013-02-02 16:53:00
10:53 AM,28.9,26.1,89,30.56,10.0,Calm,Calm,-,N/A,,Clear,0,2013-02-02 17:53:00
11:53 AM,34.0,26.1,73,30.54,10.0,Calm,Calm,-,N/A,,Clear,0,2013-02-02 18:53:00
12:53 PM,34.0,27.0,75,30.52,10.0,WSW,3.5,-,N/A,,Clear,240,2013-02-02 19:53:00
1:53 PM,35.1,27.0,72,30.49,10.0,South,4.6,-,N/A,,Clear,180,2013-02-02 20:53:00
2:53 PM,37.0,26.1,65,30.47,10.0,SE,3.5,-,N/A,,Clear,140,2013-02-02 21:53:00
3:53 PM,41.0,26.1,55,30.45,10.0,Calm,Calm,-,N/A,,Clear,0,2013-02-02 22:53:00
4:53 PM,39.0,27.0,62,30.44,10.0,Calm,Calm,-,N/A,,Clear,0,2013-02-02 23:53:00
5:53 PM,34.0,26.1,73,30.45,10.0,NW,3.5,-,N/A,,Clear,320,2013-02-03 00:53:00
6:53 PM,32.0,26.1,79,30.44,10.0,Calm,Calm,-,N/A,,Clear,0,2013-02-03 01:53:00
7:53 PM,28.9,24.1,82,30.45,10.0,Calm,Calm,-,N/A,,Clear,0,2013-02-03 02:53:00
8:53 PM,28.9,24.1,82,30.43,10.0,Calm,Calm,-,N/A,,Clear,0,2013-02-03 03:53:00
9:53 PM,27.0,24.1,89,30.42,10.0,Calm,Calm,-,N/A,,Clear,0,2013-02-03 04:53:00
10:53 PM,26.1,23.0,88,30.39,10.0,Calm,Calm,-,N/A,,Clear,0,2013-02-03 05:53:00
11:53 PM,26.1,21.9,84,30.37,10.0,Calm,Calm,-,N/A,,Clear,0,2013-02-03 06:53:00